Time;durP1;ratioP1;P1;durP2;ratioP2;P2;SDS_P1;SDS_P2;PMS_P1;PMS_P2;Temp;Humidity;BMP_temperature;BMP_pressure;BME280_temperature;BME280_humidity;BME280_pressure;Samples;Min_cycle;Max_cycle;Signal;HPM_P1;HPM_P2
2022/01/26 00:07:06;;;;;;;3.70;0.90;;;4.10;99.90;;;;;;5066495;28;20226;-77
2022/01/26 00:09:31;;;;;;;3.87;0.43;;;4.00;99.90;;;;;;5066841;28;20196;-77
2022/01/26 00:11:57;;;;;;;0.43;0.40;;;4.00;99.90;;;;;;5065580;28;20249;-77
2022/01/26 00:14:23;;;;;;;0.70;0.60;;;3.80;99.90;;;;;;5066832;28;20217;-77
2022/01/26 00:16:48;;;;;;;1.13;1.03;;;3.80;99.90;;;;;;5065087;28;20202;-77
2022/01/26 00:19:21;;;;;;;0.50;0.50;;;3.70;99.90;;;;;;5065089;28;20749;-77
2022/01/26 00:21:50;;;;;;;0.50;0.50;;;3.70;99.90;;;;;;5065839;28;20178;-77
2022/01/26 00:29:25;;;;;;;0.60;0.60;;;3.70;99.90;;;;;;5066318;28;20557;-77
2022/01/26 00:40:37;;;;;;;0.30;0.30;;;3.70;99.90;;;;;;5065628;28;20753;-77
2022/01/26 00:43:23;;;;;;;0.27;0.27;;;3.70;99.90;;;;;;5066865;28;20576;-77
2022/01/26 00:45:55;;;;;;;0.20;0.20;;;3.60;99.90;;;;;;5066674;28;20179;-77
2022/01/26 00:48:21;;;;;;;0.73;0.73;;;3.60;99.90;;;;;;5063924;28;20847;-77
2022/01/26 00:50:51;;;;;;;0.73;0.73;;;3.60;99.90;;;;;;5064529;28;20197;-77
2022/01/26 00:53:19;;;;;;;0.83;0.83;;;3.60;99.90;;;;;;5062426;28;20189;-78
2022/01/26 00:55:44;;;;;;;0.87;0.80;;;3.50;99.90;;;;;;5064921;28;20191;-77
2022/01/26 00:58:10;;;;;;;0.97;0.60;;;3.40;99.90;;;;;;5066706;28;20185;-78
2022/01/26 01:00:35;;;;;;;1.17;1.07;;;3.40;99.90;;;;;;5064989;28;20220;-77
2022/01/26 01:03:02;;;;;;;0.23;0.23;;;3.40;99.90;;;;;;5066279;28;21132;-77
2022/01/26 01:08:26;;;;;;;0.77;0.47;;;3.50;99.90;;;;;;5053265;28;20280;-77
2022/01/26 01:10:56;;;;;;;0.83;0.83;;;3.50;99.90;;;;;;5066264;28;20230;-78
2022/01/26 01:13:32;;;;;;;0.30;0.30;;;3.50;99.90;;;;;;5065438;28;20225;-79
2022/01/26 01:15:59;;;;;;;0.87;0.87;;;3.60;99.90;;;;;;5065432;28;20174;-77
2022/01/26 01:18:43;;;;;;;0.80;0.63;;;3.50;99.90;;;;;;5062971;28;20181;-79
2022/01/26 01:29:57;;;;;;;3.03;0.63;;;3.60;99.90;;;;;;4995551;28;20432;-77
2022/01/26 01:32:32;;;;;;;1.43;0.40;;;3.70;99.90;;;;;;5056876;28;20728;-78
2022/01/26 01:34:59;;;;;;;0.53;0.53;;;3.60;99.90;;;;;;5064099;28;20176;-77
2022/01/26 01:37:25;;;;;;;0.40;0.40;;;3.50;99.90;;;;;;5064712;28;20189;-78
2022/01/26 01:39:50;;;;;;;2.57;0.47;;;3.50;99.90;;;;;;5064498;28;20214;-77
2022/01/26 01:42:16;;;;;;;3.80;0.80;;;3.40;99.90;;;;;;5062845;28;20206;-78
2022/01/26 01:44:42;;;;;;;1.80;1.03;;;3.40;99.90;;;;;;5063139;28;20214;-77
2022/01/26 01:47:07;;;;;;;0.23;0.23;;;3.40;99.90;;;;;;5063876;28;20214;-79
2022/01/26 01:49:34;;;;;;;0.43;0.43;;;3.40;99.90;;;;;;5064709;28;20198;-77
2022/01/26 01:52:03;;;;;;;0.20;0.20;;;3.40;99.90;;;;;;5063132;28;20230;-77
2022/01/26 01:54:29;;;;;;;2.57;1.00;;;3.50;99.90;;;;;;5063812;28;20658;-77
2022/01/26 01:56:57;;;;;;;0.90;0.67;;;3.50;99.90;;;;;;5064219;28;20183;-78
2022/01/26 01:59:28;;;;;;;0.93;0.93;;;3.60;99.90;;;;;;5064188;28;20219;-77
2022/01/26 02:01:54;;;;;;;1.70;0.60;;;3.60;99.90;;;;;;5063739;28;20262;-78
2022/01/26 02:04:20;;;;;;;0.40;0.20;;;3.50;99.90;;;;;;5064596;28;20230;-77
2022/01/26 02:06:46;;;;;;;0.13;0.13;;;3.50;99.90;;;;;;5063887;28;20661;-79
2022/01/26 02:09:11;;;;;;;0.87;0.23;;;3.40;99.90;;;;;;5061069;28;20187;-78
2022/01/26 02:12:11;;;;;;;1.07;0.67;;;3.40;99.90;;;;;;5065309;28;20206;-78
2022/01/26 02:14:42;;;;;;;5.07;0.70;;;3.30;99.90;;;;;;5063750;28;20182;-78
2022/01/26 02:55:15;;;;;;;0.83;0.83;;;3.30;99.90;;;;;;5064398;28;20202;-77
2022/01/26 03:00:28;;;;;;;1.00;0.80;;;3.30;99.90;;;;;;5065333;28;20773;-77
2022/01/26 03:03:12;;;;;;;0.67;0.63;;;3.30;99.90;;;;;;5063915;28;20652;-77
2022/01/26 03:05:45;;;;;;;0.87;0.87;;;3.30;99.90;;;;;;5063255;28;20171;-78
2022/01/26 03:08:11;;;;;;;0.50;0.50;;;3.40;99.90;;;;;;5063888;28;20290;-78
2022/01/26 03:10:50;;;;;;;5.10;1.20;;;3.50;99.90;;;;;;5064755;28;20217;-78
2022/01/26 03:13:21;;;;;;;0.53;0.53;;;3.40;99.90;;;;;;5064460;28;20266;-78
2022/01/26 03:15:58;;;;;;;0.20;0.20;;;3.50;99.90;;;;;;5064329;28;20687;-77
2022/01/26 03:21:10;;;;;;;0.10;0.10;;;3.40;99.90;;;;;;5065915;28;20217;-78
2022/01/26 03:32:25;;;;;;;0.37;0.33;;;3.50;99.90;;;;;;5067875;28;20542;-78
2022/01/26 03:34:32;;;;;;;2.23;0.73;;;3.50;99.90;;;;;;5066290;28;20623;-77
2022/01/26 03:37:03;;;;;;;0.20;0.20;;;3.50;99.90;;;;;;5067112;28;20266;-77
2022/01/26 03:39:30;;;;;;;0.60;0.53;;;3.40;99.90;;;;;;5066154;28;20598;-77
2022/01/26 03:42:04;;;;;;;1.77;0.60;;;3.40;99.90;;;;;;5067507;28;20182;-78
2022/01/26 03:44:30;;;;;;;0.60;0.60;;;3.40;99.90;;;;;;5068824;28;20195;-76
2022/01/26 03:46:56;;;;;;;0.20;0.20;;;3.40;99.90;;;;;;5065360;28;20181;-77
2022/01/26 03:49:22;;;;;;;1.20;1.10;;;3.30;99.90;;;;;;5069491;28;20264;-77
2022/01/26 03:51:47;;;;;;;0.23;0.23;;;3.30;99.90;;;;;;5069606;28;20183;-77
2022/01/26 03:54:14;;;;;;;0.07;0.07;;;3.30;99.90;;;;;;5067771;28;20692;-77
2022/01/26 03:56:41;;;;;;;0.40;0.40;;;3.30;99.90;;;;;;5066725;28;20312;-77
2022/01/26 03:59:07;;;;;;;0.33;0.33;;;3.30;99.90;;;;;;5060522;28;20200;-77
2022/01/26 04:01:33;;;;;;;2.10;0.50;;;3.40;99.90;;;;;;5065906;28;20192;-77
2022/01/26 04:03:59;;;;;;;0.50;0.50;;;3.40;99.90;;;;;;5062958;28;20214;-77
2022/01/26 04:06:25;;;;;;;0.63;0.63;;;3.50;99.90;;;;;;5060618;28;20198;-77
2022/01/26 04:08:51;;;;;;;0.40;0.40;;;3.50;99.90;;;;;;5065490;28;20214;-77
2022/01/26 04:11:39;;;;;;;0.60;0.60;;;3.50;99.90;;;;;;5065509;28;20206;-77
2022/01/26 04:14:07;;;;;;;0.10;0.10;;;3.50;99.90;;;;;;5064738;28;20727;-77
2022/01/26 04:16:34;;;;;;;1.37;0.70;;;3.50;99.90;;;;;;5065121;28;20182;-77
2022/01/26 04:19:00;;;;;;;0.37;0.37;;;3.50;99.90;;;;;;5064913;28;20615;-77
2022/01/26 04:24:11;;;;;;;0.30;0.30;;;3.50;99.90;;;;;;5064144;28;20173;-77
2022/01/26 04:26:46;;;;;;;1.70;1.03;;;3.50;99.90;;;;;;5061571;28;20186;-77
2022/01/26 04:29:17;;;;;;;0.60;0.60;;;3.50;99.90;;;;;;5062778;28;20720;-77
2022/01/26 04:31:43;;;;;;;0.30;0.30;;;3.40;99.90;;;;;;5061277;28;20188;-77
2022/01/26 04:34:08;;;;;;;0.13;0.13;;;3.40;99.90;;;;;;5064715;28;20693;-77
2022/01/26 04:36:41;;;;;;;0.57;0.57;;;3.40;99.90;;;;;;5063789;28;20190;-77
2022/01/26 04:39:11;;;;;;;0.10;0.10;;;3.40;99.90;;;;;;5063542;28;20213;-77
2022/01/26 04:44:24;;;;;;;0.70;0.67;;;3.50;99.90;;;;;;5065596;28;20189;-77
2022/01/26 04:46:51;;;;;;;0.20;0.20;;;3.50;99.90;;;;;;5063356;28;20180;-77
2022/01/26 04:49:17;;;;;;;0.30;0.30;;;3.50;99.90;;;;;;5066042;28;20703;-77
2022/01/26 04:51:42;;;;;;;0.23;0.23;;;3.60;99.90;;;;;;5064086;28;20188;-77
2022/01/26 04:54:09;;;;;;;0.73;0.60;;;3.60;99.90;;;;;;5064984;28;20226;-78
2022/01/26 04:56:34;;;;;;;0.37;0.37;;;3.60;99.90;;;;;;5063793;28;20186;-77
2022/01/26 04:59:00;;;;;;;0.10;0.10;;;3.50;99.90;;;;;;5065414;28;20209;-77
2022/01/26 05:01:25;;;;;;;8.00;0.60;;;3.50;99.90;;;;;;5066133;28;20244;-77
2022/01/26 05:03:51;;;;;;;0.23;0.17;;;3.60;99.90;;;;;;5066788;28;20187;-77
2022/01/26 05:06:17;;;;;;;2.23;0.60;;;3.60;99.90;;;;;;5066513;28;20277;-77
2022/01/26 05:08:42;;;;;;;8.20;0.87;;;3.70;99.90;;;;;;5064281;28;20214;-77
2022/01/26 05:11:11;;;;;;;0.73;0.67;;;3.70;99.90;;;;;;5065919;28;20575;-76
2022/01/26 05:13:36;;;;;;;0.30;0.30;;;3.70;99.90;;;;;;5064740;28;20175;-77
2022/01/26 05:16:05;;;;;;;2.20;0.57;;;3.70;99.90;;;;;;5063902;28;20189;-77
2022/01/26 05:18:31;;;;;;;0.10;0.10;;;3.70;99.90;;;;;;5065891;28;20187;-77
2022/01/26 05:20:57;;;;;;;0.43;0.43;;;3.70;99.90;;;;;;5066200;28;20666;-77
2022/01/26 05:23:22;;;;;;;0.13;0.13;;;3.80;99.90;;;;;;5064516;28;20184;-77
2022/01/26 05:25:48;;;;;;;0.40;0.40;;;3.80;99.90;;;;;;5067700;28;20190;-78
2022/01/26 05:28:13;;;;;;;0.50;0.43;;;3.80;99.90;;;;;;5072462;28;20218;-77
2022/01/26 05:30:39;;;;;;;1.30;0.80;;;3.60;99.90;;;;;;5071891;28;21040;-77
2022/01/26 05:33:04;;;;;;;0.97;0.50;;;3.70;99.90;;;;;;5064987;28;20196;-77
2022/01/26 05:35:31;;;;;;;0.60;0.60;;;3.70;99.90;;;;;;5065859;28;21054;-77
2022/01/26 05:37:57;;;;;;;0.90;0.40;;;3.70;99.90;;;;;;5066032;28;20187;-77
2022/01/26 05:40:23;;;;;;;1.27;1.17;;;3.80;99.90;;;;;;5064715;28;20292;-77
2022/01/26 05:42:48;;;;;;;0.60;0.60;;;3.80;99.90;;;;;;5064930;28;20233;-77
2022/01/26 05:45:27;;;;;;;0.10;0.10;;;3.80;99.90;;;;;;5064186;28;20648;-77
2022/01/26 05:47:53;;;;;;;0.93;0.40;;;3.90;99.90;;;;;;5063709;28;20215;-77
2022/01/26 05:50:19;;;;;;;0.63;0.63;;;3.90;99.90;;;;;;5064575;28;20200;-77
2022/01/26 05:52:45;;;;;;;0.30;0.30;;;3.90;99.90;;;;;;5065174;28;20173;-76
2022/01/26 05:55:11;;;;;;;0.67;0.67;;;3.90;99.90;;;;;;5065406;28;20192;-76
2022/01/26 05:57:36;;;;;;;0.63;0.60;;;4.00;99.90;;;;;;5065080;28;20658;-78
2022/01/26 06:00:05;;;;;;;0.20;0.20;;;4.00;99.90;;;;;;5063799;28;20270;-77
2022/01/26 06:02:31;;;;;;;0.13;0.13;;;3.90;99.90;;;;;;5054825;28;20201;-77
2022/01/26 06:04:57;;;;;;;1.40;0.33;;;4.00;99.90;;;;;;5062049;28;20241;-77
2022/01/26 06:07:22;;;;;;;0.30;0.30;;;3.90;99.90;;;;;;5064702;28;20683;-77
2022/01/26 06:09:48;;;;;;;0.37;0.37;;;3.90;99.90;;;;;;5059528;28;20225;-77
2022/01/26 06:12:13;;;;;;;0.57;0.50;;;4.00;99.90;;;;;;5063636;28;20233;-78
2022/01/26 06:14:39;;;;;;;0.50;0.50;;;3.90;99.90;;;;;;5063535;28;20184;-77
2022/01/26 06:17:05;;;;;;;0.10;0.10;;;4.00;99.90;;;;;;5065183;28;20175;-78
2022/01/26 06:19:30;;;;;;;0.47;0.47;;;4.00;99.90;;;;;;5062197;28;20715;-78
2022/01/26 06:21:56;;;;;;;0.20;0.20;;;4.00;99.90;;;;;;5063827;28;20206;-83
2022/01/26 06:24:21;;;;;;;0.33;0.33;;;4.00;99.90;;;;;;5064518;28;20184;-83
2022/01/26 06:26:47;;;;;;;0.30;0.30;;;4.00;99.90;;;;;;5069070;28;20649;-83
2022/01/26 06:29:12;;;;;;;0.30;0.30;;;4.00;99.90;;;;;;5074155;28;20207;-83
2022/01/26 06:31:40;;;;;;;0.40;0.40;;;4.00;99.90;;;;;;5071749;28;20192;-83
2022/01/26 06:34:10;;;;;;;0.77;0.50;;;3.90;99.90;;;;;;5069814;28;20194;-83
2022/01/26 06:36:37;;;;;;;0.20;0.20;;;3.90;99.90;;;;;;5068352;28;20184;-84
2022/01/26 06:39:04;;;;;;;0.13;0.13;;;3.90;99.90;;;;;;5063195;28;20643;-77
2022/01/26 06:41:30;;;;;;;0.27;0.17;;;3.90;99.90;;;;;;5062446;28;20192;-77
2022/01/26 06:44:12;;;;;;;0.20;0.20;;;3.90;99.90;;;;;;5064966;28;20206;-77
2022/01/26 06:47:45;;;;;;;2.10;0.93;;;3.90;99.90;;;;;;5064257;28;20197;-80
2022/01/26 06:49:29;;;;;;;0.73;0.67;;;3.90;99.90;;;;;;5061836;28;20780;-78
2022/01/26 06:51:55;;;;;;;0.10;0.10;;;3.80;99.90;;;;;;5071494;28;20661;-77
2022/01/26 06:54:21;;;;;;;1.43;1.43;;;3.80;99.90;;;;;;5066513;28;20206;-78
2022/01/26 06:56:46;;;;;;;0.20;0.20;;;3.80;99.90;;;;;;5066045;28;20277;-78
2022/01/26 06:59:12;;;;;;;3.40;0.60;;;3.70;99.90;;;;;;5069130;28;20242;-78
2022/01/26 07:01:39;;;;;;;0.47;0.47;;;3.70;99.90;;;;;;5068821;28;20187;-77
2022/01/26 07:04:04;;;;;;;1.33;0.50;;;3.70;99.90;;;;;;5066941;28;20206;-78
2022/01/26 07:06:30;;;;;;;0.97;0.97;;;3.80;99.90;;;;;;5061854;28;22042;-78
2022/01/26 07:08:55;;;;;;;0.20;0.20;;;3.70;99.90;;;;;;5062465;28;20218;-77
2022/01/26 07:11:21;;;;;;;0.33;0.33;;;3.70;99.90;;;;;;5061581;28;20210;-77
2022/01/26 07:13:47;;;;;;;0.67;0.67;;;3.60;99.90;;;;;;5065625;28;20186;-77
2022/01/26 07:21:40;;;;;;;0.10;0.10;;;3.50;99.90;;;;;;5065380;28;20247;-78
2022/01/26 07:24:06;;;;;;;0.23;0.23;;;3.50;99.90;;;;;;5060789;28;20188;-77
2022/01/26 07:26:32;;;;;;;2.70;0.40;;;3.50;99.90;;;;;;5062075;28;20184;-77
2022/01/26 07:29:02;;;;;;;0.10;0.10;;;3.40;99.90;;;;;;5066851;28;20680;-78
2022/01/26 07:31:28;;;;;;;0.47;0.47;;;3.50;99.90;;;;;;5066190;28;20215;-78
2022/01/26 07:33:55;;;;;;;0.40;0.40;;;3.50;99.90;;;;;;5058110;28;20188;-79
2022/01/26 07:36:22;;;;;;;4.43;0.20;;;3.50;99.90;;;;;;5055615;28;20274;-78
2022/01/26 07:38:52;;;;;;;0.27;0.27;;;3.60;99.90;;;;;;5064890;28;20199;-78
2022/01/26 07:41:18;;;;;;;0.20;0.20;;;3.30;99.90;;;;;;5062839;28;21253;-78
2022/01/26 07:43:45;;;;;;;1.40;0.37;;;3.30;99.90;;;;;;5065305;28;20258;-78
2022/01/26 07:46:11;;;;;;;0.93;0.20;;;3.40;99.90;;;;;;5065431;28;20206;-78
2022/01/26 07:48:37;;;;;;;0.60;0.20;;;3.60;99.90;;;;;;5065913;28;20227;-78
2022/01/26 07:51:03;;;;;;;0.43;0.27;;;3.60;99.90;;;;;;5066793;28;20274;-78
2022/01/26 07:53:29;;;;;;;0.53;0.20;;;3.70;99.90;;;;;;5065684;28;20188;-78
2022/01/26 07:55:56;;;;;;;0.20;0.20;;;3.70;99.90;;;;;;5064731;28;20200;-78
2022/01/26 07:58:22;;;;;;;0.60;0.57;;;3.80;99.90;;;;;;5057072;28;20188;-77
2022/01/26 08:00:48;;;;;;;1.20;1.03;;;3.80;99.90;;;;;;5064641;28;20216;-78
2022/01/26 08:03:14;;;;;;;0.30;0.30;;;3.90;99.90;;;;;;5062086;28;20182;-79
2022/01/26 08:05:40;;;;;;;0.57;0.57;;;3.90;99.90;;;;;;5065617;28;20287;-78
2022/01/26 08:08:06;;;;;;;0.23;0.20;;;3.90;99.90;;;;;;5066588;28;20234;-78
2022/01/26 08:10:32;;;;;;;0.70;0.63;;;3.90;99.90;;;;;;5066284;28;20207;-78
2022/01/26 08:12:57;;;;;;;0.10;0.10;;;4.00;99.90;;;;;;5063559;28;20195;-78
2022/01/26 08:15:24;;;;;;;1.33;1.23;;;4.00;99.90;;;;;;5065413;28;20191;-78
2022/01/26 08:17:50;;;;;;;2.73;0.57;;;4.00;99.90;;;;;;5064365;28;20531;-79
2022/01/26 08:20:15;;;;;;;0.10;0.10;;;4.00;99.90;;;;;;5065498;28;20218;-78
2022/01/26 08:22:41;;;;;;;0.20;0.20;;;3.90;99.90;;;;;;5065981;28;20180;-78
2022/01/26 08:25:07;;;;;;;0.20;0.20;;;4.00;99.90;;;;;;5065528;28;20218;-78
2022/01/26 08:27:40;;;;;;;0.23;0.23;;;4.00;99.90;;;;;;5064151;28;20290;-78
2022/01/26 08:30:10;;;;;;;0.03;0.03;;;3.90;99.90;;;;;;5065675;28;20616;-78
2022/01/26 08:32:36;;;;;;;0.30;0.30;;;4.00;99.90;;;;;;5064961;28;20181;-78
2022/01/26 08:35:01;;;;;;;0.30;0.30;;;4.00;99.90;;;;;;5064591;28;20187;-78
2022/01/26 08:37:27;;;;;;;0.10;0.10;;;4.00;99.90;;;;;;5063921;28;20203;-78
2022/01/26 08:39:52;;;;;;;0.53;0.30;;;4.00;99.90;;;;;;5065550;28;20324;-78
2022/01/26 08:42:18;;;;;;;0.17;0.17;;;4.00;99.90;;;;;;5066818;28;20191;-79
2022/01/26 08:44:43;;;;;;;0.63;0.30;;;4.00;99.90;;;;;;5065248;28;20184;-78
2022/01/26 08:47:09;;;;;;;0.10;0.10;;;4.00;99.90;;;;;;5065099;28;20198;-78
2022/01/26 08:49:35;;;;;;;2.53;0.50;;;4.00;99.90;;;;;;5065299;28;20270;-78
2022/01/26 08:52:01;;;;;;;1.13;0.97;;;3.90;99.90;;;;;;5066253;28;20264;-78
2022/01/26 08:54:26;;;;;;;0.40;0.37;;;3.90;99.90;;;;;;5064485;28;20179;-78
2022/01/26 08:56:53;;;;;;;0.30;0.30;;;4.00;99.90;;;;;;5064094;28;20180;-78
2022/01/26 08:59:20;;;;;;;0.10;0.10;;;3.90;99.90;;;;;;5060461;28;20277;-78
2022/01/26 09:01:46;;;;;;;0.20;0.20;;;3.90;99.90;;;;;;5060438;28;20248;-78
2022/01/26 09:04:12;;;;;;;0.77;0.70;;;3.90;99.90;;;;;;5061296;28;20763;-81
2022/01/26 09:06:51;;;;;;;0.10;0.10;;;3.80;99.90;;;;;;5065189;28;20200;-81
2022/01/26 09:09:18;;;;;;;0.40;0.30;;;3.90;99.90;;;;;;5064307;28;20219;-81
2022/01/26 09:11:44;;;;;;;0.50;0.50;;;3.80;99.90;;;;;;5066073;28;20184;-81
2022/01/26 09:14:12;;;;;;;0.57;0.57;;;3.70;99.90;;;;;;5067151;28;20175;-82
2022/01/26 09:16:38;;;;;;;0.33;0.30;;;3.90;99.90;;;;;;5064042;28;20175;-81
2022/01/26 09:19:19;;;;;;;2.00;0.50;;;3.90;99.90;;;;;;5065250;28;20181;-79
2022/01/26 09:21:44;;;;;;;0.83;0.53;;;3.90;99.90;;;;;;5063276;28;20183;-78
2022/01/26 09:24:10;;;;;;;0.33;0.33;;;4.00;99.90;;;;;;5065933;28;20200;-78
2022/01/26 09:26:36;;;;;;;0.67;0.57;;;4.00;99.90;;;;;;5063846;28;20186;-78
2022/01/26 09:29:01;;;;;;;0.73;0.53;;;4.00;99.90;;;;;;5063882;28;20272;-78
2022/01/26 09:31:27;;;;;;;1.07;0.53;;;4.10;99.90;;;;;;5064108;28;20191;-78
2022/01/26 09:33:53;;;;;;;0.27;0.27;;;4.10;99.90;;;;;;5061912;28;20182;-78
2022/01/26 09:36:18;;;;;;;0.10;0.10;;;4.00;99.90;;;;;;5064447;28;20185;-79
2022/01/26 09:38:44;;;;;;;0.63;0.40;;;4.10;99.90;;;;;;5064413;28;20546;-78
2022/01/26 09:41:09;;;;;;;1.87;1.77;;;4.00;99.90;;;;;;5064953;28;20210;-78
2022/01/26 09:43:35;;;;;;;0.30;0.30;;;4.00;99.90;;;;;;5064070;28;20531;-78
2022/01/26 09:46:01;;;;;;;0.40;0.40;;;4.00;99.90;;;;;;5063389;28;20302;-78
2022/01/26 09:48:27;;;;;;;0.70;0.70;;;4.00;99.90;;;;;;5063524;28;20726;-79
2022/01/26 09:50:55;;;;;;;0.50;0.30;;;4.10;99.90;;;;;;5065664;28;20205;-78
2022/01/26 09:53:27;;;;;;;0.40;0.40;;;4.10;99.90;;;;;;5062764;28;20187;-79
2022/01/26 09:55:53;;;;;;;0.30;0.30;;;4.10;99.90;;;;;;5064410;28;20801;-78
2022/01/26 09:58:20;;;;;;;1.27;1.17;;;4.00;99.90;;;;;;5061580;28;20831;-78
2022/01/26 10:00:46;;;;;;;0.27;0.27;;;4.00;99.90;;;;;;5063417;28;20786;-82
2022/01/26 10:03:14;;;;;;;0.50;0.50;;;3.80;99.90;;;;;;5062867;28;20283;-78
2022/01/26 10:05:45;;;;;;;0.47;0.30;;;3.90;99.90;;;;;;5059057;28;20184;-78
2022/01/26 10:15:27;;;;;;;0.30;0.30;;;3.90;99.90;;;;;;5061924;28;20208;-79
2022/01/26 10:18:56;;;;;;;0.73;0.70;;;3.90;99.90;;;;;;5063461;28;20183;-79
2022/01/26 10:21:23;;;;;;;0.30;0.30;;;4.00;99.90;;;;;;5062961;28;20253;-78
2022/01/26 10:23:49;;;;;;;0.30;0.30;;;4.00;99.90;;;;;;5060184;28;20188;-78
2022/01/26 10:26:18;;;;;;;0.30;0.30;;;4.00;99.90;;;;;;5060767;28;20212;-79
2022/01/26 10:29:01;;;;;;;0.10;0.10;;;4.00;99.90;;;;;;5061681;28;20588;-78
2022/01/26 10:31:30;;;;;;;0.60;0.47;;;4.00;99.90;;;;;;5060821;28;20662;-78
2022/01/26 10:34:02;;;;;;;0.60;0.60;;;4.00;99.90;;;;;;5064417;28;20179;-80
2022/01/26 10:36:45;;;;;;;0.77;0.77;;;3.90;99.90;;;;;;5061666;28;20176;-78
2022/01/26 10:39:25;;;;;;;0.10;0.10;;;4.00;99.90;;;;;;5060029;28;20191;-79
2022/01/26 10:41:54;;;;;;;0.50;0.40;;;4.00;99.90;;;;;;5060517;28;20166;-78
2022/01/26 10:44:31;;;;;;;1.80;0.87;;;3.90;99.90;;;;;;5071228;28;20189;-78
2022/01/26 10:47:02;;;;;;;0.40;0.40;;;4.00;99.90;;;;;;5060440;28;20174;-78
2022/01/26 10:52:31;;;;;;;0.40;0.40;;;3.90;99.90;;;;;;5065178;28;20204;-78
2022/01/26 10:54:58;;;;;;;0.40;0.33;;;3.80;99.90;;;;;;5063365;28;21059;-78
2022/01/26 10:57:24;;;;;;;0.53;0.43;;;3.90;99.90;;;;;;5063553;28;20273;-78
2022/01/26 10:59:51;;;;;;;0.60;0.60;;;3.90;99.90;;;;;;5062251;28;20230;-78
2022/01/26 11:02:23;;;;;;;0.30;0.30;;;3.80;99.90;;;;;;5061233;28;20690;-78
2022/01/26 11:04:48;;;;;;;1.47;0.53;;;3.80;99.90;;;;;;5063211;28;20180;-78
2022/01/26 11:07:17;;;;;;;0.10;0.10;;;3.80;99.90;;;;;;5061735;28;20609;-78
2022/01/26 11:09:48;;;;;;;4.33;0.43;;;3.90;99.90;;;;;;5061469;28;20712;-77
2022/01/26 11:12:26;;;;;;;0.97;0.53;;;3.90;99.90;;;;;;5063648;28;20263;-79
2022/01/26 11:14:58;;;;;;;0.40;0.40;;;3.90;99.90;;;;;;5063559;28;20177;-78
2022/01/26 11:17:27;;;;;;;0.40;0.40;;;3.90;99.90;;;;;;5059855;28;20217;-78
2022/01/26 11:19:56;;;;;;;1.07;0.97;;;3.90;99.90;;;;;;5061708;28;20194;-77
2022/01/26 11:22:27;;;;;;;1.23;0.87;;;4.00;99.90;;;;;;5063340;28;20761;-78
2022/01/26 11:24:54;;;;;;;0.63;0.63;;;4.00;99.90;;;;;;5062148;28;20170;-77
2022/01/26 11:27:21;;;;;;;2.13;1.23;;;4.00;99.90;;;;;;5061184;28;20233;-78
2022/01/26 11:29:50;;;;;;;0.53;0.53;;;4.10;99.90;;;;;;5060938;28;20199;-78
2022/01/26 11:32:40;;;;;;;0.20;0.20;;;4.20;99.90;;;;;;5060599;28;20186;-78
2022/01/26 11:35:08;;;;;;;0.53;0.53;;;4.30;99.90;;;;;;5059902;28;20178;-78
2022/01/26 11:37:42;;;;;;;0.27;0.27;;;4.30;99.90;;;;;;5054906;28;20593;-77
2022/01/26 11:45:23;;;;;;;1.33;0.70;;;4.20;99.90;;;;;;5064964;28;20267;-77
2022/01/26 11:48:09;;;;;;;0.70;0.37;;;4.10;99.90;;;;;;5065877;28;20671;-76
2022/01/26 11:50:37;;;;;;;1.67;0.40;;;4.10;99.90;;;;;;5068043;28;20198;-78
2022/01/26 11:53:16;;;;;;;0.60;0.60;;;4.00;99.90;;;;;;5069300;28;20259;-76
2022/01/26 11:55:48;;;;;;;1.17;0.20;;;4.10;99.90;;;;;;5068520;28;20175;-77
2022/01/26 11:58:31;;;;;;;3.20;0.63;;;4.10;99.90;;;;;;5063936;28;20223;-77
2022/01/26 12:03:42;;;;;;;0.40;0.40;;;4.00;99.90;;;;;;5068185;28;20190;-76
2022/01/26 12:06:13;;;;;;;0.60;0.53;;;4.00;99.90;;;;;;5067341;28;20193;-77
2022/01/26 12:08:39;;;;;;;3.87;0.43;;;4.00;99.90;;;;;;5065212;28;20244;-77
2022/01/26 12:11:09;;;;;;;1.20;1.10;;;4.10;99.90;;;;;;5068894;28;20199;-77
2022/01/26 12:13:39;;;;;;;0.60;0.50;;;4.00;99.90;;;;;;5072953;28;20182;-78
2022/01/26 12:16:09;;;;;;;0.43;0.43;;;4.00;99.90;;;;;;5075718;28;20175;-78
2022/01/26 12:45:17;;;;;;;1.43;0.50;;;4.10;99.90;;;;;;5065321;28;20177;-77
2022/01/26 12:47:43;;;;;;;0.70;0.70;;;4.10;99.90;;;;;;5065384;28;20673;-76
2022/01/26 12:50:09;;;;;;;1.90;0.87;;;4.20;99.90;;;;;;5064365;28;20215;-77
2022/01/26 12:52:35;;;;;;;0.37;0.37;;;4.10;99.90;;;;;;5064863;28;20186;-76
2022/01/26 12:55:01;;;;;;;0.40;0.40;;;3.80;99.90;;;;;;5063205;28;20208;-76
2022/01/26 12:57:27;;;;;;;0.97;0.97;;;3.70;99.90;;;;;;5075513;28;20719;-76
2022/01/26 13:00:00;;;;;;;0.67;0.63;;;3.80;99.90;;;;;;5065812;28;20297;-77
2022/01/26 13:02:26;;;;;;;0.30;0.30;;;3.90;99.90;;;;;;5065390;28;20655;-76
2022/01/26 13:04:59;;;;;;;0.43;0.43;;;4.00;99.90;;;;;;5071859;28;20197;-77
2022/01/26 13:07:25;;;;;;;0.20;0.20;;;4.10;99.90;;;;;;5062724;28;20233;-78
2022/01/26 13:09:51;;;;;;;0.97;0.60;;;4.20;99.90;;;;;;5063408;28;20201;-77
2022/01/26 13:12:27;;;;;;;0.57;0.57;;;4.10;99.90;;;;;;5064639;28;20192;-77
2022/01/26 13:15:04;;;;;;;0.37;0.37;;;4.10;99.90;;;;;;5064098;28;20177;-77
2022/01/26 13:22:56;;;;;;;1.23;1.13;;;3.80;99.90;;;;;;5067272;28;20186;-77
2022/01/26 13:33:59;;;;;;;0.80;0.80;;;3.90;99.90;;;;;;5065397;28;20556;-76
2022/01/26 13:49:18;;;;;;;0.33;0.33;;;4.10;99.90;;;;;;5064947;28;20278;-78
2022/01/26 13:52:05;;;;;;;2.40;0.87;;;4.20;99.90;;;;;;5063217;28;20198;-77
2022/01/26 13:54:50;;;;;;;1.20;0.87;;;4.20;99.90;;;;;;5064396;28;20203;-77
2022/01/26 13:59:52;;;;;;;4.33;0.60;;;4.50;99.90;;;;;;5063768;28;20211;-77
2022/01/26 14:02:17;;;;;;;4.27;0.83;;;4.50;99.90;;;;;;5063804;28;20182;-77
2022/01/26 14:04:43;;;;;;;2.33;0.63;;;4.50;99.90;;;;;;5063024;28;20186;-77
2022/01/26 14:07:09;;;;;;;0.30;0.30;;;4.50;99.90;;;;;;5062448;28;20224;-77
2022/01/26 14:09:36;;;;;;;0.60;0.60;;;4.50;99.90;;;;;;5064426;28;20212;-77
2022/01/26 14:12:02;;;;;;;4.30;1.23;;;4.50;99.90;;;;;;5064240;28;20639;-78
2022/01/26 14:14:41;;;;;;;0.93;0.93;;;4.40;99.90;;;;;;5064823;28;20185;-77
2022/01/26 14:17:14;;;;;;;0.90;0.90;;;4.30;99.90;;;;;;5064311;28;20194;-77
2022/01/26 14:20:06;;;;;;;0.80;0.77;;;4.30;99.90;;;;;;5064857;28;20206;-77
2022/01/26 14:22:35;;;;;;;0.60;0.60;;;4.30;99.90;;;;;;5062352;28;20198;-77
2022/01/26 14:25:15;;;;;;;1.03;0.47;;;4.20;99.90;;;;;;5062071;28;20179;-77
2022/01/26 14:27:45;;;;;;;0.40;0.40;;;4.30;99.90;;;;;;5060989;28;20286;-77
2022/01/26 14:35:30;;;;;;;1.23;0.50;;;4.30;99.90;;;;;;5064594;28;20540;-78
2022/01/26 14:51:53;;;;;;;0.97;0.97;;;4.30;99.90;;;;;;5064713;28;20242;-78
2022/01/26 15:22:54;;;;;;;0.10;0.10;;;4.40;99.90;;;;;;5064332;28;21206;-78
2022/01/26 15:30:24;;;;;;;0.57;0.57;;;4.30;99.90;;;;;;5066265;28;20209;-77
2022/01/26 15:35:38;;;;;;;0.70;0.70;;;4.30;99.90;;;;;;5065036;28;20222;-78
2022/01/26 15:41:19;;;;;;;0.80;0.80;;;4.10;99.90;;;;;;5063619;28;20296;-78
2022/01/26 15:44:03;;;;;;;0.33;0.33;;;4.10;99.90;;;;;;5068256;28;20199;-78
2022/01/26 15:48:47;;;;;;;1.17;1.17;;;4.20;99.90;;;;;;5063667;28;20184;-80
2022/01/26 15:50:09;;;;;;;0.40;0.33;;;4.20;99.90;;;;;;5067479;28;20378;-80
2022/01/26 15:52:42;;;;;;;0.90;0.90;;;4.20;99.90;;;;;;5063524;28;20216;-80
2022/01/26 16:06:11;;;;;;;0.97;0.50;;;4.20;99.90;;;;;;5063643;28;20235;-80
2022/01/26 16:17:01;;;;;;;1.97;0.70;;;4.30;99.90;;;;;;5065739;28;20290;-80
2022/01/26 16:52:32;;;;;;;0.20;0.20;;;4.00;99.90;;;;;;5063266;28;20272;-79
2022/01/26 16:52:47;;;;;;;0.37;0.37;;;4.00;99.90;;;;;;5061554;28;20180;-79
2022/01/26 17:47:52;;;;;;;1.27;1.17;;;3.90;99.90;;;;;;5062100;28;20297;-79
2022/01/26 18:16:35;;;;;;;1.83;0.63;;;3.80;99.90;;;;;;5058656;28;20200;-79
2022/01/26 18:51:27;;;;;;;0.47;0.47;;;3.80;99.90;;;;;;5064915;28;20280;-78
2022/01/26 18:53:52;;;;;;;0.67;0.60;;;3.70;99.90;;;;;;5060781;28;20213;-80
2022/01/26 18:56:18;;;;;;;0.73;0.40;;;3.70;99.90;;;;;;5065010;28;20172;-79
2022/01/26 18:58:44;;;;;;;1.93;1.83;;;3.70;99.90;;;;;;5065719;28;20651;-78
2022/01/26 19:01:09;;;;;;;3.13;0.67;;;3.70;99.90;;;;;;5062435;28;20626;-79
2022/01/26 19:03:35;;;;;;;0.77;0.70;;;3.70;99.90;;;;;;5065069;28;20204;-79
2022/01/26 19:06:02;;;;;;;0.47;0.43;;;3.80;99.90;;;;;;5064769;28;20182;-79
2022/01/26 19:08:29;;;;;;;1.37;1.27;;;3.70;99.90;;;;;;5080451;28;20197;-79
2022/01/26 19:10:56;;;;;;;0.40;0.40;;;3.70;99.90;;;;;;5061779;28;20848;-78
2022/01/26 19:13:26;;;;;;;0.83;0.83;;;3.70;99.90;;;;;;5065040;28;20183;-79
2022/01/26 19:15:56;;;;;;;1.33;0.47;;;3.70;99.90;;;;;;5064349;28;20562;-78
2022/01/26 19:18:32;;;;;;;0.30;0.30;;;3.70;99.90;;;;;;5063314;28;20194;-78
2022/01/26 19:21:10;;;;;;;0.43;0.43;;;3.70;99.90;;;;;;5064954;28;20292;-78
2022/01/26 19:24:03;;;;;;;0.53;0.53;;;3.70;99.90;;;;;;5066879;28;20523;-81
2022/01/26 19:26:35;;;;;;;1.07;0.83;;;3.70;99.90;;;;;;5065541;28;20191;-79
2022/01/26 19:29:13;;;;;;;1.20;1.10;;;3.60;99.90;;;;;;5063129;28;20229;-80
2022/01/26 19:40:08;;;;;;;0.17;0.17;;;3.70;99.90;;;;;;5064415;28;20312;-79
2022/01/26 19:50:59;;;;;;;2.47;1.53;;;3.60;99.90;;;;;;5065496;28;20275;-79
2022/01/26 19:53:24;;;;;;;0.77;0.77;;;3.70;99.90;;;;;;5066234;28;20217;-79